Pagina principale
METAR-TAF:

METAR-TAF

Aeroporti :

Aeroporto di Ostenda

Ostenda, Belgio

latitudine: 51-12N, longitudine: 002-52E, altezza: 4 m

Osservazione

Il bollettino è stato emesso 18 minuti fa, alle 23:20 UTC
Vento 3 kt da sud-est
Temperature 11°C
Umidità 87%
Pressione 1021 hPa
Visibilità 10 km o più
nessuna nube inferiore a 1500 m e nessun cumulonembo

METAR: EBOS 162320Z 13003KT CAVOK 11/09 Q1021 NOSIG

Ora: 01:38 (23:38 UTC)

Previsione

Il bollettino è stato emesso 6 ore e 28 minuti fa, alle 17:10 UTC
Previsione valida dal 16 alle 18 UTC al 17 alle 24 UTC
Vento 5 kt da sud/sud-est
Visibilità 10 km o più
Poco nuvoloso ad un'altezza di 3500 ft
Probabilità 30% :
Temporaneamente
dal 17 alle 01 UTC al 17 alle 05 UTC
Visibilità: 4000 m
foschia

TAF: EBOS 161710Z 1618/1724 15005KT 9999 FEW035 PROB30 TEMPO 1701/1705 4000 BR

Osservazioni e previsioni meteorologiche di più di 4000 aeroporti (messaggi METAR e TAF).

Le stazioni disponibili sono rappresentate dai dischi gialli e rossi sulla carta.

Puntare il mouse per vedere il nome della stazione.

Clicca sopra per visualizzare le osservazioni e previsioni meteorologiche.

Per cambiare la mappa : fare clic sui pulsanti verdi con una croce nera per ingrandire, il pulsante verde con un trattino per diminuire, o sulla freccia verde per le mappe adiacenti.


METAR-TAF: